Time;durP1;ratioP1;P1;durP2;ratioP2;P2;SDS_P1;SDS_P2;PMS_P1;PMS_P2;Temp;Humidity;BMP_temperature;BMP_pressure;BME280_temperature;BME280_humidity;BME280_pressure;Samples;Min_cycle;Max_cycle;Signal;HPM_P1;HPM_P2
2021/12/21 00:02:07;;;;;;;8.25;4.25;;;;;;;-0.78;90.02;97450.28;5091531;28;20746;-67
2021/12/21 00:04:33;;;;;;;6.97;4.03;;;;;;;-0.68;89.78;97447.69;5091270;28;20451;-66
2021/12/21 00:06:58;;;;;;;6.53;3.83;;;;;;;-0.67;89.14;97442.38;5089770;28;20390;-66
2021/12/21 00:09:23;;;;;;;7.03;3.90;;;;;;;-0.75;89.55;97446.63;5090299;28;20390;-66
2021/12/21 00:11:49;;;;;;;5.73;3.90;;;;;;;-0.75;89.69;97446.63;5091335;28;20874;-66
2021/12/21 00:22:38;;;;;;;9.30;3.97;;;;;;;-0.92;89.35;97430.13;5068833;28;20463;-65
2021/12/21 00:24:57;;;;;;;6.20;3.72;;;;;;;-1.08;90.02;97430.72;5081165;28;20409;-66
2021/12/21 00:27:22;;;;;;;6.50;4.13;;;;;;;-1.15;90.99;97432.22;5091617;28;20400;-65
2021/12/21 00:29:48;;;;;;;7.53;3.70;;;;;;;-0.96;89.94;97428.81;5091107;28;20396;-66
2021/12/21 00:32:13;;;;;;;8.17;4.17;;;;;;;-0.98;89.50;97433.25;5089966;28;20398;-65
2021/12/21 00:34:40;;;;;;;6.97;3.60;;;;;;;-0.88;89.15;97426.34;5091041;28;20404;-66
2021/12/21 00:37:05;;;;;;;8.57;3.90;;;;;;;-0.99;89.10;97423.91;5091084;28;20417;-66
2021/12/21 00:39:31;;;;;;;7.60;3.60;;;;;;;-0.98;88.85;97425.53;5091113;28;20393;-66
2021/12/21 00:41:56;;;;;;;8.80;4.50;;;;;;;-0.99;89.01;97416.19;5090880;28;20830;-66
2021/12/21 00:44:22;;;;;;;5.67;3.43;;;;;;;-1.01;89.44;97420.69;5091136;28;20859;-66
2021/12/21 00:46:47;;;;;;;6.80;3.77;;;;;;;-1.02;89.31;97413.91;5090078;28;20886;-66
2021/12/21 00:49:14;;;;;;;6.13;3.60;;;;;;;-0.82;88.12;97412.91;5091379;28;20378;-66
2021/12/21 00:51:45;;;;;;;6.43;3.30;;;;;;;-0.91;88.17;97403.47;5091438;28;20477;-66
2021/12/21 00:54:12;;;;;;;8.77;3.90;;;;;;;-0.96;88.57;97413.38;5091100;28;20412;-66
2021/12/21 00:56:38;;;;;;;5.60;3.50;;;;;;;-0.86;88.43;97404.66;5091477;28;20448;-66
2021/12/21 00:59:04;;;;;;;7.35;3.78;;;;;;;-0.95;88.55;97407.28;5091573;28;20397;-66
2021/12/21 01:01:30;;;;;;;6.47;3.70;;;;;;;-0.96;88.55;97406.47;5091057;28;20805;-65
2021/12/21 01:03:57;;;;;;;7.93;3.55;;;;;;;-1.04;89.20;97401.19;5090663;28;20413;-66
2021/12/21 01:06:39;;;;;;;7.03;3.80;;;;;;;-1.06;89.37;97402.28;5090947;28;20819;-66
2021/12/21 01:09:18;;;;;;;6.07;3.95;;;;;;;-1.08;89.77;97399.84;5090962;28;21138;-66
2021/12/21 01:11:52;;;;;;;8.45;3.72;;;;;;;-0.88;88.66;97400.59;5090798;28;20393;-72
2021/12/21 01:19:42;;;;;;;8.98;3.67;;;;;;;-1.11;89.37;97394.97;5091543;28;20386;-66
2021/12/21 01:33:22;;;;;;;7.60;3.40;;;;;;;-1.06;88.99;97387.66;5091183;28;20385;-65
2021/12/21 01:35:37;;;;;;;8.13;3.80;;;;;;;-1.02;89.10;97383.06;5089512;28;20398;-65
2021/12/21 01:38:19;;;;;;;6.47;3.70;;;;;;;-1.08;89.83;97391.31;5090830;28;20443;-65
2021/12/21 01:51:17;;;;;;;8.38;4.00;;;;;;;-1.03;89.09;97384.81;5094245;28;20385;-65
2021/12/21 01:53:44;;;;;;;7.93;3.85;;;;;;;-1.04;88.75;97384.94;5094443;28;20401;-65
2021/12/21 01:56:10;;;;;;;7.53;4.05;;;;;;;-1.02;89.35;97390.78;5086569;28;20462;-65
2021/12/21 01:58:39;;;;;;;7.25;3.85;;;;;;;-0.93;89.15;97395.88;5094424;28;20750;-65
2021/12/21 02:01:07;;;;;;;6.32;3.60;;;;;;;-0.99;89.27;97400.78;5093501;28;20427;-65
2021/12/21 02:03:33;;;;;;;6.28;3.83;;;;;;;-0.95;88.90;97391.84;5093836;28;20504;-70
2021/12/21 02:05:59;;;;;;;6.55;3.88;;;;;;;-1.03;89.59;97389.16;5092071;28;20398;-65
2021/12/21 02:08:24;;;;;;;6.95;4.00;;;;;;;-1.09;89.92;97389.69;5093967;28;20761;-65
2021/12/21 02:10:50;;;;;;;7.50;4.10;;;;;;;-1.18;90.21;97381.06;5093471;28;20393;-65
2021/12/21 02:13:15;;;;;;;6.80;4.00;;;;;;;-1.06;90.10;97390.22;5092240;28;20481;-65
2021/12/21 02:15:41;;;;;;;7.25;4.10;;;;;;;-1.24;90.02;97386.75;5093882;28;20523;-65
2021/12/21 02:21:23;;;;;;;7.15;3.80;;;;;;;-1.17;90.36;97381.88;5069276;28;20698;-65
2021/12/21 02:23:51;;;;;;;7.97;3.57;;;;;;;-1.19;90.61;97381.19;5071019;28;20415;-65
2021/12/21 02:26:33;;;;;;;6.60;3.80;;;;;;;-1.25;90.70;97377.41;5071051;28;20419;-66
2021/12/21 02:29:25;;;;;;;8.07;4.20;;;;;;;-1.24;90.42;97367.94;5070590;28;20425;-65
2021/12/21 02:31:52;;;;;;;6.18;4.05;;;;;;;-1.17;89.89;97374.94;5054004;28;20479;-65
2021/12/21 02:34:19;;;;;;;7.55;3.90;;;;;;;-1.36;90.69;97375.81;5054059;28;20980;-65
2021/12/21 02:36:47;;;;;;;7.65;3.92;;;;;;;-1.37;91.01;97371.63;5053441;28;20458;-69
2021/12/21 02:39:13;;;;;;;8.60;3.67;;;;;;;-1.04;90.02;97374.66;5070556;28;20411;-69
2021/12/21 02:41:40;;;;;;;4.68;3.50;;;;;;;-1.27;90.44;97372.41;5070966;28;20867;-65
2021/12/21 02:44:06;;;;;;;7.78;4.10;;;;;;;-1.19;90.43;97379.44;5070697;28;20823;-65
2021/12/21 02:46:32;;;;;;;5.85;3.60;;;;;;;-1.44;91.61;97377.44;5070961;28;20388;-65
2021/12/21 02:48:57;;;;;;;6.33;3.90;;;;;;;-1.40;91.29;97379.63;5070245;28;20388;-66
2021/12/21 02:51:23;;;;;;;9.07;4.33;;;;;;;-1.55;91.86;97375.81;5076294;28;20755;-68
2021/12/21 02:53:48;;;;;;;6.55;3.72;;;;;;;-1.41;91.71;97375.41;5092271;28;20389;-65
2021/12/21 02:56:14;;;;;;;5.60;3.80;;;;;;;-1.44;91.34;97375.69;5092876;28;20434;-65
2021/12/21 02:58:41;;;;;;;9.13;4.30;;;;;;;-1.49;91.89;97371.91;5071272;28;20420;-65
2021/12/21 03:01:08;;;;;;;7.30;4.00;;;;;;;-1.71;92.91;97366.09;5092532;28;20469;-65
2021/12/21 03:03:34;;;;;;;6.97;3.73;;;;;;;-1.78;92.71;97372.72;5092880;28;21059;-65
2021/12/21 03:06:01;;;;;;;8.57;4.37;;;;;;;-1.84;94.04;97372.47;5092480;28;20396;-65
2021/12/21 03:08:48;;;;;;;5.10;3.63;;;;;;;-1.61;93.30;97375.56;5092652;28;20819;-65
2021/12/21 03:11:20;;;;;;;7.65;4.18;;;;;;;-1.67;93.98;97371.00;5077001;28;20419;-65
2021/12/21 03:14:04;;;;;;;7.45;3.95;;;;;;;-1.70;93.83;97374.63;5092944;28;20838;-65
2021/12/21 03:16:37;;;;;;;7.20;4.30;;;;;;;-1.53;93.30;97380.84;5092835;28;20878;-65
2021/12/21 03:19:05;;;;;;;8.15;4.30;;;;;;;-1.61;93.61;97378.13;5092285;28;20474;-64
2021/12/21 03:21:32;;;;;;;7.22;4.65;;;;;;;-1.67;93.83;97372.59;5092618;28;20382;-65
2021/12/21 03:23:58;;;;;;;7.10;4.20;;;;;;;-1.76;93.65;97370.03;5091065;28;20807;-66
2021/12/21 03:26:23;;;;;;;8.32;4.60;;;;;;;-1.71;93.94;97363.53;5092461;28;20433;-67
2021/12/21 03:28:49;;;;;;;7.33;4.23;;;;;;;-1.55;92.61;97367.31;5092063;28;20386;-66
2021/12/21 03:31:14;;;;;;;8.17;4.57;;;;;;;-1.53;92.88;97373.13;5091959;28;20462;-67
2021/12/21 03:33:39;;;;;;;8.00;4.70;;;;;;;-1.51;92.38;97372.06;5090865;28;20442;-66
2021/12/21 03:36:05;;;;;;;7.37;4.07;;;;;;;-1.50;92.65;97373.66;5092081;28;20398;-66
2021/12/21 03:38:33;;;;;;;7.57;4.10;;;;;;;-1.59;92.78;97369.34;5092109;28;20386;-66
2021/12/21 03:41:05;;;;;;;7.03;4.10;;;;;;;-1.70;93.24;97372.88;5091939;28;20390;-66
2021/12/21 03:43:31;;;;;;;6.38;4.10;;;;;;;-1.61;92.94;97371.22;5092445;28;20437;-66
2021/12/21 03:46:09;;;;;;;5.45;3.88;;;;;;;-1.67;92.59;97373.56;5091971;28;20754;-66
2021/12/21 03:48:36;;;;;;;8.60;4.45;;;;;;;-1.60;92.73;97369.47;5092339;28;20393;-66
2021/12/21 03:51:03;;;;;;;8.18;4.10;;;;;;;-1.66;92.73;97373.41;5091778;28;20388;-66
2021/12/21 03:53:28;;;;;;;8.30;4.30;;;;;;;-1.67;92.79;97364.06;5091724;28;20477;-66
2021/12/21 03:56:07;;;;;;;7.00;4.07;;;;;;;-1.60;92.43;97361.75;5091563;28;20470;-66
2021/12/21 03:58:33;;;;;;;5.50;4.13;;;;;;;-1.81;93.07;97369.63;5091659;28;20386;-66
2021/12/21 04:00:58;;;;;;;7.32;4.22;;;;;;;-1.74;93.32;97353.53;5091521;28;20416;-66
2021/12/21 04:03:24;;;;;;;5.13;4.25;;;;;;;-1.52;92.72;97362.72;5091604;28;20722;-66
2021/12/21 04:05:49;;;;;;;7.17;4.20;;;;;;;-1.62;92.09;97371.38;5090692;28;20398;-66
2021/12/21 04:08:15;;;;;;;8.53;4.40;;;;;;;-1.60;92.24;97366.91;5091596;28;20473;-66
2021/12/21 04:10:40;;;;;;;7.43;3.97;;;;;;;-1.80;93.47;97372.06;5090920;28;20382;-66
2021/12/21 04:13:09;;;;;;;6.93;4.10;;;;;;;-1.71;93.63;97368.69;5091678;28;20451;-66
2021/12/21 04:15:42;;;;;;;8.25;4.30;;;;;;;-1.70;93.17;97370.31;5089953;28;20425;-67
2021/12/21 04:18:07;;;;;;;7.53;4.43;;;;;;;-1.88;93.42;97366.78;5091040;28;20921;-66
2021/12/21 04:20:33;;;;;;;6.27;4.03;;;;;;;-1.78;93.24;97370.16;5091467;28;20378;-66
2021/12/21 04:22:58;;;;;;;6.20;4.03;;;;;;;-1.83;93.22;97366.38;5091496;28;20487;-66
2021/12/21 04:25:23;;;;;;;8.40;4.25;;;;;;;-1.67;92.61;97364.06;5091455;28;20370;-66
2021/12/21 04:27:49;;;;;;;7.63;4.70;;;;;;;-1.72;93.05;97359.34;5090971;28;20922;-67
2021/12/21 04:30:14;;;;;;;8.67;4.20;;;;;;;-1.90;93.43;97360.16;5090069;28;20759;-67
2021/12/21 04:32:39;;;;;;;5.73;3.90;;;;;;;-1.71;93.51;97367.84;5091470;28;20385;-66
2021/12/21 04:35:06;;;;;;;7.03;4.00;;;;;;;-1.88;93.20;97371.09;5091110;28;20382;-66
2021/12/21 04:37:35;;;;;;;10.27;4.30;;;;;;;-1.89;93.55;97365.16;5090984;28;20906;-67
2021/12/21 04:40:05;;;;;;;6.40;4.18;;;;;;;-1.92;93.53;97373.13;5091169;28;20382;-66
2021/12/21 04:42:31;;;;;;;8.20;4.20;;;;;;;-1.79;93.75;97365.16;5090098;28;21014;-66
2021/12/21 04:44:56;;;;;;;6.65;4.20;;;;;;;-2.00;94.09;97367.84;5091188;28;20382;-66
2021/12/21 04:47:22;;;;;;;5.90;4.00;;;;;;;-1.75;92.99;97369.91;5091362;28;20447;-66
2021/12/21 04:49:47;;;;;;;8.53;4.43;;;;;;;-1.89;93.07;97364.34;5091475;28;20389;-66
2021/12/21 04:52:13;;;;;;;8.98;4.15;;;;;;;-1.86;92.83;97364.09;5091065;28;20390;-66
2021/12/21 04:54:39;;;;;;;7.03;4.13;;;;;;;-1.86;93.26;97370.03;5091314;28;20402;-66
2021/12/21 04:57:05;;;;;;;5.22;3.75;;;;;;;-1.84;93.16;97362.97;5091286;28;20382;-66
2021/12/21 04:59:31;;;;;;;6.18;4.28;;;;;;;-2.05;93.77;97356.34;5089430;28;20477;-66
2021/12/21 05:01:56;;;;;;;6.57;4.10;;;;;;;-1.78;93.16;97356.50;5089700;28;20477;-66
2021/12/21 05:04:21;;;;;;;8.80;4.20;;;;;;;-1.77;92.10;97355.56;5090567;28;20406;-66
2021/12/21 05:06:47;;;;;;;5.53;4.28;;;;;;;-1.96;93.43;97356.38;5090863;28;20412;-66
2021/12/21 05:09:25;;;;;;;7.47;3.93;;;;;;;-1.91;93.44;97354.22;5091172;28;20390;-66
2021/12/21 05:11:51;;;;;;;5.60;3.70;;;;;;;-1.91;93.89;97359.34;5090986;28;20486;-66
2021/12/21 05:14:16;;;;;;;7.53;3.88;;;;;;;-1.80;92.98;97356.66;5090609;28;20421;-66
2021/12/21 05:16:42;;;;;;;7.90;4.25;;;;;;;-1.71;92.15;97352.44;5091436;28;20425;-66
2021/12/21 05:19:07;;;;;;;7.43;4.13;;;;;;;-1.94;92.43;97356.22;5090541;28;20382;-66
2021/12/21 05:21:34;;;;;;;6.17;4.37;;;;;;;-2.00;94.13;97359.31;5092289;28;20891;-66
2021/12/21 05:23:59;;;;;;;6.35;4.30;;;;;;;-2.13;94.76;97352.72;5094733;28;20402;-66
2021/12/21 05:26:25;;;;;;;8.90;4.63;;;;;;;-2.06;94.80;97354.75;5094708;28;20933;-69
2021/12/21 05:28:50;;;;;;;7.20;4.50;;;;;;;-1.95;95.04;97349.50;5094807;28;20381;-66
2021/12/21 05:31:16;;;;;;;8.97;4.60;;;;;;;-1.76;93.96;97354.63;5094708;28;20812;-66
2021/12/21 05:33:42;;;;;;;8.40;4.63;;;;;;;-1.67;93.63;97350.44;5092796;28;20496;-66
2021/12/21 05:36:07;;;;;;;9.10;4.88;;;;;;;-1.85;93.87;97353.69;5094485;28;20398;-67
2021/12/21 05:38:35;;;;;;;10.10;4.83;;;;;;;-1.88;94.09;97342.84;5094798;28;20398;-66
2021/12/21 05:41:03;;;;;;;10.73;4.65;;;;;;;-1.67;92.45;97339.19;5093727;28;20464;-66
2021/12/21 05:43:29;;;;;;;7.45;4.05;;;;;;;-2.08;94.04;97342.03;5094162;28;20434;-66
2021/12/21 05:45:55;;;;;;;7.07;4.45;;;;;;;-2.10;94.70;97336.22;5094838;28;20477;-66
2021/12/21 05:48:20;;;;;;;5.78;4.10;;;;;;;-2.00;93.54;97333.66;5094557;28;20461;-66
2021/12/21 05:50:46;;;;;;;7.63;4.35;;;;;;;-2.09;93.31;97337.84;5094367;28;20429;-67
2021/12/21 05:53:11;;;;;;;6.43;4.30;;;;;;;-2.06;93.58;97341.91;5084606;28;20405;-66
2021/12/21 05:55:36;;;;;;;6.60;4.13;;;;;;;-2.05;93.27;97336.63;5093982;28;20424;-67
2021/12/21 05:58:02;;;;;;;10.23;4.73;;;;;;;-1.99;93.44;97332.72;5094077;28;20386;-66
2021/12/21 06:00:31;;;;;;;6.10;4.13;;;;;;;-1.90;92.98;97334.47;5094209;28;20401;-66
2021/12/21 06:02:57;;;;;;;9.32;4.68;;;;;;;-1.93;92.32;97338.13;5093267;28;20555;-66
2021/12/21 06:05:24;;;;;;;9.33;4.13;;;;;;;-2.04;92.46;97337.44;5093013;28;20401;-66
2021/12/21 06:07:52;;;;;;;7.10;4.10;;;;;;;-2.02;92.73;97338.94;5093185;28;20386;-66
2021/12/21 06:10:26;;;;;;;6.68;4.13;;;;;;;-2.15;92.78;97339.19;5093613;28;20743;-66
2021/12/21 06:16:19;;;;;;;9.07;4.67;;;;;;;-1.82;91.03;97347.44;5093341;28;20429;-65
2021/12/21 06:26:12;;;;;;;8.25;4.28;;;;;;;-1.99;91.67;97336.09;5093433;28;20430;-65
2021/12/21 06:28:37;;;;;;;6.57;4.43;;;;;;;-2.02;91.32;97335.56;5093677;28;20412;-65
2021/12/21 06:31:03;;;;;;;9.23;4.40;;;;;;;-2.07;91.20;97340.28;5093688;28;20465;-66
2021/12/21 06:33:29;;;;;;;12.35;4.45;;;;;;;-2.11;91.87;97337.16;5092350;28;20397;-65
2021/12/21 06:35:55;;;;;;;7.70;4.40;;;;;;;-2.12;91.61;97333.78;5093390;28;20394;-65
2021/12/21 06:38:21;;;;;;;7.20;4.25;;;;;;;-2.19;91.61;97340.41;5092968;28;20418;-65
2021/12/21 06:40:47;;;;;;;8.07;4.43;;;;;;;-2.18;91.47;97339.47;5092864;28;20393;-69
2021/12/21 06:43:15;;;;;;;7.73;4.53;;;;;;;-2.13;90.66;97339.06;5092897;28;20414;-65
2021/12/21 06:51:58;;;;;;;6.80;4.32;;;;;;;-2.27;91.21;97337.69;5092931;28;20389;-67
2021/12/21 06:53:53;;;;;;;6.97;4.32;;;;;;;-2.40;91.78;97331.19;5083400;28;20441;-67
2021/12/21 06:56:20;;;;;;;8.45;4.75;;;;;;;-2.56;92.44;97331.69;5091178;28;20394;-67
2021/12/21 06:58:46;;;;;;;7.40;4.87;;;;;;;-2.64;93.37;97334.09;5092860;28;20390;-67
2021/12/21 07:01:13;;;;;;;7.10;4.28;;;;;;;-2.37;92.55;97329.16;5088299;28;20851;-67
2021/12/21 07:03:41;;;;;;;6.30;4.50;;;;;;;-2.40;92.54;97328.63;5092392;28;20465;-67
2021/12/21 07:06:07;;;;;;;7.35;4.57;;;;;;;-2.49;92.62;97332.78;5091986;28;20414;-67
2021/12/21 07:08:42;;;;;;;8.77;4.70;;;;;;;-2.36;91.73;97338.50;5092799;28;20913;-68
2021/12/21 07:19:21;;;;;;;8.23;4.45;;;;;;;-2.47;93.02;97335.22;5092447;28;20459;-67
2021/12/21 07:21:46;;;;;;;7.87;5.00;;;;;;;-2.54;93.21;97337.50;5092496;28;20390;-69
2021/12/21 07:24:12;;;;;;;6.67;4.93;;;;;;;-2.38;92.95;97344.69;5091978;28;20405;-69
2021/12/21 07:26:37;;;;;;;7.75;4.38;;;;;;;-2.03;90.55;97349.34;5092376;28;20728;-66
2021/12/21 07:29:04;;;;;;;7.32;4.40;;;;;;;-2.14;90.39;97351.09;5092223;28;20470;-67
2021/12/21 07:31:29;;;;;;;5.95;4.18;;;;;;;-1.95;89.93;97352.84;5091581;28;20472;-67
2021/12/21 07:33:55;;;;;;;6.83;4.03;;;;;;;-2.02;90.35;97351.78;5092599;28;20398;-67
2021/12/21 07:36:21;;;;;;;7.03;3.75;;;;;;;-1.98;91.05;97363.41;5090334;28;20405;-67
2021/12/21 07:38:46;;;;;;;5.50;3.88;;;;;;;-1.86;90.12;97361.50;5091265;28;20386;-69
2021/12/21 07:41:12;;;;;;;6.95;4.10;;;;;;;-1.70;89.09;97360.03;5091696;28;20400;-68
2021/12/21 07:43:38;;;;;;;5.43;4.10;;;;;;;-2.00;90.52;97364.47;5089535;28;20890;-68
2021/12/21 07:46:03;;;;;;;5.83;3.83;;;;;;;-1.97;90.14;97371.91;5091760;28;20382;-68
2021/12/21 07:48:29;;;;;;;7.13;4.73;;;;;;;-1.79;88.97;97372.88;5090881;28;20386;-67
2021/12/21 07:50:55;;;;;;;6.45;4.35;;;;;;;-1.51;86.78;97372.06;5091902;28;20839;-67
2021/12/21 07:53:21;;;;;;;6.63;3.65;;;;;;;-1.36;86.26;97375.00;5091552;28;20425;-67
2021/12/21 07:55:46;;;;;;;6.05;3.80;;;;;;;-1.26;86.13;97378.38;5092076;28;20437;-67
2021/12/21 07:58:13;;;;;;;4.77;3.80;;;;;;;-1.20;85.61;97377.81;5091192;28;20382;-68
2021/12/21 08:00:39;;;;;;;5.90;4.00;;;;;;;-1.10;84.79;97381.16;5092636;28;20386;-67
2021/12/21 08:03:05;;;;;;;7.33;4.10;;;;;;;-1.10;85.00;97378.59;5091789;28;20402;-67
2021/12/21 08:05:33;;;;;;;5.55;3.75;;;;;;;-0.90;84.84;97380.19;5091165;28;20394;-71
2021/12/21 08:08:18;;;;;;;6.20;4.15;;;;;;;-0.70;83.41;97374.94;5091802;28;20731;-68
2021/12/21 08:10:56;;;;;;;5.72;4.10;;;;;;;-0.83;83.62;97377.84;5090214;28;20398;-68
2021/12/21 08:13:22;;;;;;;5.30;3.92;;;;;;;-0.81;83.57;97380.28;5089831;28;20393;-67
2021/12/21 08:15:48;;;;;;;6.57;3.80;;;;;;;-0.86;83.74;97381.50;5091458;28;20418;-67
2021/12/21 08:18:14;;;;;;;6.38;4.03;;;;;;;-0.78;83.20;97377.44;5087419;28;20394;-67
2021/12/21 08:20:41;;;;;;;6.45;4.35;;;;;;;-0.82;83.80;97384.59;5091356;28;20847;-68
2021/12/21 08:23:07;;;;;;;5.82;4.20;;;;;;;-0.49;82.47;97380.69;5090547;28;20421;-68
2021/12/21 08:25:34;;;;;;;5.72;3.95;;;;;;;-0.66;82.01;97378.84;5090808;28;20386;-68
2021/12/21 08:28:01;;;;;;;7.60;4.10;;;;;;;-0.63;81.91;97381.16;5090956;28;20870;-67
2021/12/21 08:30:28;;;;;;;6.03;4.18;;;;;;;-0.91;82.88;97377.75;5091572;28;20778;-67
2021/12/21 08:32:54;;;;;;;5.95;4.05;;;;;;;-0.95;83.37;97378.97;5089653;28;20401;-68
2021/12/21 08:35:20;;;;;;;6.93;4.23;;;;;;;-1.02;83.89;97383.88;5091146;28;20401;-67
2021/12/21 08:37:51;;;;;;;5.28;4.05;;;;;;;-0.80;83.32;97387.84;5091526;28;20501;-68
2021/12/21 08:40:18;;;;;;;5.53;4.00;;;;;;;-0.80;83.16;97387.84;5083010;28;20394;-67
2021/12/21 08:42:46;;;;;;;8.33;4.33;;;;;;;-0.54;82.12;97382.88;5090074;28;20845;-67
2021/12/21 08:45:11;;;;;;;5.72;4.20;;;;;;;-0.57;81.75;97389.13;5091045;28;20715;-67
2021/12/21 08:47:39;;;;;;;8.00;4.53;;;;;;;-0.52;81.48;97384.38;5082668;28;20443;-67
2021/12/21 08:50:06;;;;;;;7.78;4.32;;;;;;;-0.59;81.88;97387.63;5090559;28;20421;-67
2021/12/21 08:52:34;;;;;;;6.32;4.22;;;;;;;-0.36;80.61;97391.47;5091100;28;20406;-67
2021/12/21 08:55:00;;;;;;;5.85;3.90;;;;;;;-0.37;79.91;97384.69;5090007;28;20808;-67
2021/12/21 08:57:25;;;;;;;5.37;4.00;;;;;;;-0.52;80.80;97378.41;5090887;28;20465;-67
2021/12/21 08:59:51;;;;;;;5.80;4.20;;;;;;;-0.60;80.71;97378.28;5091060;28;20463;-68
2021/12/21 09:02:16;;;;;;;7.83;4.27;;;;;;;-0.51;80.78;97380.84;5091268;28;20496;-67
2021/12/21 09:04:42;;;;;;;6.97;4.50;;;;;;;-0.59;81.69;97374.78;5090081;28;20450;-67
2021/12/21 09:07:08;;;;;;;5.97;4.22;;;;;;;-0.30;81.61;97377.19;5091109;28;20420;-68
2021/12/21 09:09:33;;;;;;;5.73;4.10;;;;;;;-0.45;81.90;97369.94;5089734;28;20394;-67
2021/12/21 09:11:59;;;;;;;6.32;3.95;;;;;;;-0.55;82.20;97368.38;5091251;28;20374;-67
2021/12/21 09:14:25;;;;;;;8.20;4.15;;;;;;;-0.53;81.65;97362.16;5090201;28;20397;-67
2021/12/21 09:16:51;;;;;;;4.78;4.20;;;;;;;-0.49;82.73;97381.50;5090736;28;20389;-67
2021/12/21 09:19:16;;;;;;;6.07;4.30;;;;;;;-0.23;81.74;97376.50;5090976;28;20779;-69
2021/12/21 09:21:42;;;;;;;6.80;4.00;;;;;;;-0.42;80.96;97374.81;5089483;28;20401;-66
2021/12/21 09:24:09;;;;;;;5.00;3.93;;;;;;;-0.13;81.49;97373.84;5090941;28;20410;-67
2021/12/21 09:26:35;;;;;;;7.22;4.40;;;;;;;-0.11;81.05;97380.47;5090864;28;20412;-67
2021/12/21 09:29:01;;;;;;;6.97;4.85;;;;;;;-0.24;80.89;97381.78;5091016;28;20916;-69
2021/12/21 09:31:27;;;;;;;7.82;4.57;;;;;;;-0.22;80.92;97378.09;5090978;28;20386;-66
2021/12/21 09:33:52;;;;;;;6.72;4.47;;;;;;;-0.29;81.22;97381.41;5088984;28;20501;-66
2021/12/21 09:36:18;;;;;;;9.30;4.80;;;;;;;-0.04;80.66;97373.78;5090130;28;20390;-66
2021/12/21 09:38:44;;;;;;;7.83;4.90;;;;;;;0.19;80.37;97371.59;5090898;28;20783;-66
2021/12/21 09:41:10;;;;;;;8.88;4.40;;;;;;;-0.25;81.08;97377.56;5090665;28;20392;-66
2021/12/21 09:43:40;;;;;;;5.30;4.20;;;;;;;-0.09;80.44;97372.59;5088642;28;20490;-66
2021/12/21 09:46:06;;;;;;;8.10;4.72;;;;;;;-0.05;79.88;97379.88;5090332;28;20390;-66
2021/12/21 09:48:31;;;;;;;6.50;4.70;;;;;;;-0.04;80.17;97378.94;5090474;28;20390;-66
2021/12/21 09:50:57;;;;;;;7.43;4.47;;;;;;;0.32;79.76;97378.97;5089209;28;20503;-66
2021/12/21 09:53:23;;;;;;;6.47;4.30;;;;;;;0.46;78.62;97381.00;5090239;28;20398;-66
2021/12/21 09:55:49;;;;;;;6.45;4.35;;;;;;;0.27;79.33;97371.66;5090558;28;20394;-67
2021/12/21 09:58:15;;;;;;;6.93;4.20;;;;;;;0.35;79.14;97382.03;5090166;28;20412;-66
2021/12/21 10:00:41;;;;;;;7.38;4.93;;;;;;;0.29;79.90;97377.47;5090602;28;20382;-66
2021/12/21 10:03:09;;;;;;;6.73;4.90;;;;;;;0.54;77.93;97375.91;5089927;28;20909;-68
2021/12/21 10:05:37;;;;;;;7.53;5.15;;;;;;;0.40;78.71;97368.69;5089369;28;20513;-66
2021/12/21 10:08:12;;;;;;;7.30;5.22;;;;;;;0.23;79.54;97367.75;5090816;28;20398;-65
2021/12/21 10:10:44;;;;;;;5.65;4.30;;;;;;;-0.05;79.93;97371.34;5093647;28;20417;-66
2021/12/21 10:13:11;;;;;;;8.25;4.82;;;;;;;0.13;79.70;97361.06;5088877;28;20421;-66
2021/12/21 10:15:43;;;;;;;7.70;4.65;;;;;;;0.32;79.61;97358.34;5093229;28;20394;-67
2021/12/21 10:18:08;;;;;;;7.07;4.70;;;;;;;0.30;80.46;97362.81;5093691;28;20469;-67
2021/12/21 10:20:44;;;;;;;6.63;4.60;;;;;;;0.31;78.60;97359.28;5093984;28;20877;-66
2021/12/21 10:23:16;;;;;;;7.43;5.00;;;;;;;0.26;79.01;97359.72;5093250;28;20414;-67
2021/12/21 10:25:51;;;;;;;5.22;4.05;;;;;;;0.34;78.76;97361.56;5092891;28;20404;-66
2021/12/21 10:28:34;;;;;;;7.50;4.70;;;;;;;0.29;78.30;97356.03;5093011;28;20398;-67
2021/12/21 10:31:04;;;;;;;8.57;4.87;;;;;;;0.55;77.64;97364.66;5093627;28;20534;-66
2021/12/21 10:33:30;;;;;;;6.68;4.65;;;;;;;0.64;77.26;97357.78;5093168;28;20388;-67
2021/12/21 10:35:59;;;;;;;6.53;4.57;;;;;;;0.53;77.60;97352.84;5092502;28;20478;-66
2021/12/21 10:38:27;;;;;;;6.30;4.70;;;;;;;0.71;76.58;97356.22;5093534;28;20410;-67
2021/12/21 10:40:53;;;;;;;6.22;4.57;;;;;;;0.41;77.22;97345.34;5093132;28;20849;-67
2021/12/21 10:43:18;;;;;;;6.97;4.27;;;;;;;0.33;77.53;97345.31;5093037;28;20463;-67
2021/12/21 10:45:45;;;;;;;6.53;4.38;;;;;;;0.64;75.99;97344.88;5093219;28;20409;-67
2021/12/21 10:48:17;;;;;;;6.93;4.20;;;;;;;0.30;77.93;97344.78;5093533;28;20390;-67
2021/12/21 10:50:48;;;;;;;8.07;5.00;;;;;;;0.24;78.90;97343.59;5093095;28;20390;-67
2021/12/21 10:53:25;;;;;;;8.48;5.28;;;;;;;0.57;77.89;97336.13;5092625;28;20393;-67
2021/12/21 10:56:08;;;;;;;5.30;4.20;;;;;;;0.73;76.75;97333.63;5092946;28;20421;-67
2021/12/21 10:58:42;;;;;;;8.98;5.57;;;;;;;0.64;76.22;97330.22;5092621;28;20386;-67
2021/12/21 11:01:14;;;;;;;8.18;5.50;;;;;;;0.65;78.13;97333.59;5090591;28;20386;-67
2021/12/21 11:03:51;;;;;;;6.80;4.95;;;;;;;0.40;78.38;97328.25;5088699;28;20937;-67
2021/12/21 11:06:24;;;;;;;10.13;5.90;;;;;;;0.67;78.23;97322.16;5092725;28;20886;-67
2021/12/21 11:08:53;;;;;;;9.38;5.80;;;;;;;0.59;78.87;97327.28;5093303;28;20657;-67
2021/12/21 11:11:28;;;;;;;11.65;5.85;;;;;;;0.47;78.38;97319.94;5092613;28;20394;-68
2021/12/21 11:14:05;;;;;;;7.55;5.50;;;;;;;0.61;78.02;97317.63;5090579;28;20431;-67
2021/12/21 11:16:52;;;;;;;13.35;6.40;;;;;;;0.76;78.74;97329.00;5092204;28;20404;-67
2021/12/21 11:19:20;;;;;;;7.78;5.15;;;;;;;0.89;76.25;97325.22;5092087;28;20939;-68
2021/12/21 11:21:46;;;;;;;8.75;5.45;;;;;;;0.83;77.01;97316.31;5090698;28;20402;-67
2021/12/21 11:24:17;;;;;;;11.02;6.03;;;;;;;0.78;78.12;97321.13;5091636;28;20424;-67
2021/12/21 11:26:45;;;;;;;10.63;6.25;;;;;;;0.81;78.22;97316.47;5091742;28;20480;-68
2021/12/21 11:29:14;;;;;;;9.13;6.13;;;;;;;1.00;78.05;97312.06;5092580;28;20394;-67
2021/12/21 11:31:42;;;;;;;9.82;5.68;;;;;;;0.92;76.90;97312.00;5091899;28;20459;-67
2021/12/21 11:34:13;;;;;;;8.35;5.93;;;;;;;1.06;76.96;97307.06;5090566;28;20477;-67
2021/12/21 11:39:23;;;;;;;11.45;6.50;;;;;;;0.99;77.70;97294.94;5091764;28;20854;-67
2021/12/21 11:41:50;;;;;;;7.95;5.70;;;;;;;1.25;75.88;97304.25;5091214;28;20390;-67
2021/12/21 11:44:36;;;;;;;11.90;6.20;;;;;;;0.92;77.38;97302.50;5091582;28;20493;-67
2021/12/21 11:47:02;;;;;;;10.23;5.57;;;;;;;1.07;75.85;97295.78;5091422;28;20486;-67
2021/12/21 11:49:42;;;;;;;9.88;5.47;;;;;;;0.96;76.72;97301.22;5091128;28;20913;-69
2021/12/21 11:52:15;;;;;;;9.05;6.05;;;;;;;1.06;76.69;97299.31;5091940;28;20471;-66
2021/12/21 11:54:50;;;;;;;7.05;5.30;;;;;;;1.21;75.35;97294.41;5091620;28;20489;-66
2021/12/21 11:57:18;;;;;;;5.70;5.05;;;;;;;1.06;76.77;97289.00;5091263;28;20457;-67
2021/12/21 11:59:45;;;;;;;9.27;5.60;;;;;;;1.19;76.38;97298.91;5089663;28;20386;-70
2021/12/21 12:02:11;;;;;;;8.48;5.97;;;;;;;1.25;75.60;97290.53;5091582;28;20394;-68
2021/12/21 12:04:37;;;;;;;8.93;5.43;;;;;;;1.29;75.53;97291.03;5091783;28;20429;-67
2021/12/21 12:07:15;;;;;;;6.53;5.50;;;;;;;1.35;75.19;97285.22;5090811;28;20437;-66
2021/12/21 12:09:41;;;;;;;8.95;5.50;;;;;;;1.45;75.25;97285.94;5079214;28;20391;-67
2021/12/21 12:12:09;;;;;;;8.27;5.65;;;;;;;1.36;75.53;97279.91;5090931;28;20393;-67
2021/12/21 12:14:36;;;;;;;12.73;8.10;;;;;;;1.25;75.90;97280.22;5090528;28;20854;-68
2021/12/21 12:17:09;;;;;;;9.02;5.72;;;;;;;1.38;75.97;97284.94;5087832;28;20405;-68
2021/12/21 12:19:38;;;;;;;8.68;5.95;;;;;;;1.51;76.10;97290.44;5090629;28;20387;-69
2021/12/21 12:22:06;;;;;;;7.70;5.75;;;;;;;1.45;75.83;97294.47;5090419;28;20398;-69
2021/12/21 12:24:44;;;;;;;11.00;5.80;;;;;;;1.53;75.53;97288.53;5090079;28;20421;-67
2021/12/21 12:27:19;;;;;;;9.85;5.82;;;;;;;1.24;75.40;97289.72;5105100;28;20394;-68
2021/12/21 12:29:51;;;;;;;7.03;5.00;;;;;;;1.49;75.97;97282.06;5091075;28;20386;-67
2021/12/21 12:32:29;;;;;;;7.53;4.90;;;;;;;1.62;73.32;97284.97;5090586;28;20870;-68
2021/12/21 12:35:03;;;;;;;10.38;5.55;;;;;;;1.64;73.81;97283.88;5090336;28;20424;-67
2021/12/21 12:37:28;;;;;;;8.30;5.38;;;;;;;1.51;74.53;97291.25;5090338;28;20508;-67
2021/12/21 12:40:01;;;;;;;11.55;5.60;;;;;;;1.53;74.91;97280.78;5090908;28;20938;-67
2021/12/21 12:42:29;;;;;;;7.13;5.25;;;;;;;1.49;74.91;97280.28;5090311;28;20462;-67
2021/12/21 12:45:11;;;;;;;6.90;5.20;;;;;;;1.61;74.61;97278.22;5090311;28;20724;-68